Time;durP1;ratioP1;P1;durP2;ratioP2;P2;SDS_P1;SDS_P2;PMS_P1;PMS_P2;Temp;Humidity;BMP_temperature;BMP_pressure;BME280_temperature;BME280_humidity;BME280_pressure;Samples;Min_cycle;Max_cycle;Signal;HPM_P1;HPM_P2
2022/11/28 00:00:57;;;;;;;;;;;;;;;;;;5011438;28;19913;-68
2022/11/28 00:03:23;;;;;;;;;;;;;;;;;;5023630;28;20011;-68
2022/11/28 00:05:49;;;;;;;;;;;;;;;;;;5028595;28;19953;-67
2022/11/28 00:08:15;;;;;;;;;;;;;;;;;;5027172;28;19991;-68
2022/11/28 00:10:41;;;;;;;;;;;;;;;;;;5015774;28;20275;-68
2022/11/28 00:13:07;;;;;;;;;;;;;;;;;;5009955;28;19926;-67
2022/11/28 00:15:33;;;;;;;;;;;;;;;;;;5014308;28;19916;-68
2022/11/28 00:17:59;;;;;;;;;;;;;;;;;;5029184;28;19913;-68
2022/11/28 00:20:24;;;;;;;;;;;;;;;;;;5028682;28;19953;-67
2022/11/28 00:22:51;;;;;;;;;;;;;;;;;;5028555;28;19913;-67
2022/11/28 00:25:16;;;;;;;;;;;;;;;;;;5016599;28;19936;-67
2022/11/28 00:27:42;;;;;;;;;;;;;;;;;;5010442;28;20378;-67
2022/11/28 00:30:08;;;;;;;;;;;;;;;;;;5014857;28;19909;-66
2022/11/28 00:32:34;;;;;;;;;;;;;;;;;;5028054;28;20016;-67
2022/11/28 00:35:00;;;;;;;;;;;;;;;;;;5024037;28;19910;-67
2022/11/28 00:37:26;;;;;;;;;;;;;;;;;;5015029;28;19968;-65
2022/11/28 00:39:52;;;;;;;;;;;;;;;;;;5026165;28;19924;-66
2022/11/28 00:42:20;;;;;;;;;;;;;;;;;;5028141;28;19923;-67
2022/11/28 00:44:46;;;;;;;;;;;;;;;;;;5011819;28;19914;-68
2022/11/28 00:47:12;;;;;;;;;;;;;;;;;;5009014;28;19960;-68
2022/11/28 00:49:38;;;;;;;;;;;;;;;;;;5009764;28;20000;-68
2022/11/28 00:52:04;;;;;;;;;;;;;;;;;;5009670;28;19910;-68
2022/11/28 00:54:30;;;;;;;;;;;;;;;;;;5017892;28;19918;-67
2022/11/28 00:56:56;;;;;;;;;;;;;;;;;;5028712;28;19944;-68
2022/11/28 00:59:22;;;;;;;;;;;;;;;;;;5028764;28;19909;-68
2022/11/28 01:01:47;;;;;;;;;;;;;;;;;;5028263;28;19996;-67
2022/11/28 01:04:13;;;;;;;;;;;;;;;;;;5031527;28;19921;-67
2022/11/28 01:06:39;;;;;;;;;;;;;;;;;;5031852;28;19909;-68
2022/11/28 01:09:05;;;;;;;;;;;;;;;;;;5036000;28;19916;-68
2022/11/28 01:11:31;;;;;;;;;;;;;;;;;;5031816;28;19913;-68
2022/11/28 01:13:57;;;;;;;;;;;;;;;;;;5031399;28;19917;-68
2022/11/28 01:16:23;;;;;;;;;;;;;;;;;;5024560;28;19944;-69
2022/11/28 01:18:49;;;;;;;;;;;;;;;;;;5017407;28;19960;-68
2022/11/28 01:21:15;;;;;;;;;;;;;;;;;;5031769;28;19982;-68
2022/11/28 01:23:40;;;;;;;;;;;;;;;;;;5031633;28;19916;-68
2022/11/28 01:26:06;;;;;;;;;;;;;;;;;;5018155;28;19924;-68
2022/11/28 01:28:32;;;;;;;;;;;;;;;;;;5012994;28;20012;-68
2022/11/28 01:30:58;;;;;;;;;;;;;;;;;;5012138;28;19910;-68
2022/11/28 01:33:24;;;;;;;;;;;;;;;;;;5017685;28;19928;-67
2022/11/28 01:35:50;;;;;;;;;;;;;;;;;;5013003;28;19980;-68
2022/11/28 01:38:16;;;;;;;;;;;;;;;;;;5015080;28;19916;-67
2022/11/28 01:40:42;;;;;;;;;;;;;;;;;;5014094;28;19932;-68
2022/11/28 01:43:07;;;;;;;;;;;;;;;;;;5020606;28;19913;-67
2022/11/28 01:45:33;;;;;;;;;;;;;;;;;;5030648;28;20392;-68
2022/11/28 01:47:59;;;;;;;;;;;;;;;;;;5031654;28;19963;-67
2022/11/28 01:50:25;;;;;;;;;;;;;;;;;;5030404;28;19920;-67
2022/11/28 01:52:51;;;;;;;;;;;;;;;;;;5030628;28;19923;-68
2022/11/28 01:55:17;;;;;;;;;;;;;;;;;;5031149;28;19909;-67
2022/11/28 01:57:43;;;;;;;;;;;;;;;;;;5031229;28;19920;-68
2022/11/28 02:00:09;;;;;;;;;;;;;;;;;;5030525;28;19920;-68
2022/11/28 02:02:34;;;;;;;;;;;;;;;;;;5030676;28;19909;-68
2022/11/28 02:05:00;;;;;;;;;;;;;;;;;;5022315;28;19921;-68
2022/11/28 02:07:26;;;;;;;;;;;;;;;;;;5019686;28;19923;-68
2022/11/28 02:09:52;;;;;;;;;;;;;;;;;;5012268;28;20290;-68
2022/11/28 02:12:18;;;;;;;;;;;;;;;;;;5019432;28;19914;-68
2022/11/28 02:14:44;;;;;;;;;;;;;;;;;;5029308;28;20462;-68
2022/11/28 02:17:10;;;;;;;;;;;;;;;;;;5011991;28;20396;-68
2022/11/28 02:19:36;;;;;;;;;;;;;;;;;;5017703;28;19909;-67
2022/11/28 02:22:02;;;;;;;;;;;;;;;;;;5011458;28;20369;-68
2022/11/28 02:24:27;;;;;;;;;;;;;;;;;;5016587;28;19925;-68
2022/11/28 02:26:53;;;;;;;;;;;;;;;;;;5011814;28;20548;-67
2022/11/28 02:29:19;;;;;;;;;;;;;;;;;;5011559;28;19916;-68
2022/11/28 02:31:45;;;;;;;;;;;;;;;;;;5013781;28;20405;-68
2022/11/28 02:34:11;;;;;;;;;;;;;;;;;;5013106;28;20020;-68
2022/11/28 02:36:37;;;;;;;;;;;;;;;;;;5030157;28;20388;-68
2022/11/28 02:39:03;;;;;;;;;;;;;;;;;;5024860;28;19914;-67
2022/11/28 02:41:28;;;;;;;;;;;;;;;;;;5027537;28;20575;-67
2022/11/28 02:43:54;;;;;;;;;;;;;;;;;;5018955;28;19909;-68
2022/11/28 02:46:20;;;;;;;;;;;;;;;;;;5013907;28;19968;-67
2022/11/28 02:48:46;;;;;;;;;;;;;;;;;;5029733;28;20302;-67
2022/11/28 02:51:12;;;;;;;;;;;;;;;;;;5026509;28;19979;-67
2022/11/28 02:53:38;;;;;;;;;;;;;;;;;;5026662;28;20381;-68
2022/11/28 02:56:04;;;;;;;;;;;;;;;;;;5023425;28;19913;-68
2022/11/28 02:58:30;;;;;;;;;;;;;;;;;;5029706;28;19916;-67
2022/11/28 03:00:56;;;;;;;;;;;;;;;;;;5030026;28;19913;-67
2022/11/28 03:03:21;;;;;;;;;;;;;;;;;;5029760;28;20289;-67
2022/11/28 03:05:47;;;;;;;;;;;;;;;;;;5014231;28;19932;-67
2022/11/28 03:08:13;;;;;;;;;;;;;;;;;;5019733;28;19947;-67
2022/11/28 03:10:39;;;;;;;;;;;;;;;;;;5029293;28;19913;-67
2022/11/28 03:13:05;;;;;;;;;;;;;;;;;;5029661;28;19921;-67
2022/11/28 03:15:31;;;;;;;;;;;;;;;;;;5029755;28;19917;-67
2022/11/28 03:17:57;;;;;;;;;;;;;;;;;;5022940;28;19921;-68
2022/11/28 03:20:23;;;;;;;;;;;;;;;;;;5029336;28;19944;-67
2022/11/28 03:22:49;;;;;;;;;;;;;;;;;;5029317;28;19916;-67
2022/11/28 03:25:14;;;;;;;;;;;;;;;;;;5028526;28;20620;-67
2022/11/28 03:27:40;;;;;;;;;;;;;;;;;;5029883;28;20011;-68
2022/11/28 03:30:06;;;;;;;;;;;;;;;;;;5029632;28;19916;-66
2022/11/28 03:32:32;;;;;;;;;;;;;;;;;;5029049;28;20694;-67
2022/11/28 03:34:58;;;;;;;;;;;;;;;;;;5023753;28;19917;-67
2022/11/28 03:37:24;;;;;;;;;;;;;;;;;;5010210;28;19909;-68
2022/11/28 03:39:50;;;;;;;;;;;;;;;;;;5012878;28;19956;-68
2022/11/28 03:42:16;;;;;;;;;;;;;;;;;;5028900;28;19967;-67
2022/11/28 03:44:42;;;;;;;;;;;;;;;;;;5029485;28;19913;-68
2022/11/28 03:47:08;;;;;;;;;;;;;;;;;;5028883;28;19924;-67
2022/11/28 03:49:34;;;;;;;;;;;;;;;;;;5029297;28;19947;-68
2022/11/28 03:52:00;;;;;;;;;;;;;;;;;;5028994;28;20281;-67
2022/11/28 03:54:26;;;;;;;;;;;;;;;;;;5028356;28;20019;-67
2022/11/28 03:56:51;;;;;;;;;;;;;;;;;;5029081;28;20396;-68
2022/11/28 03:59:17;;;;;;;;;;;;;;;;;;5013100;28;19920;-67
2022/11/28 04:01:44;;;;;;;;;;;;;;;;;;5010234;28;20342;-67
2022/11/28 04:04:10;;;;;;;;;;;;;;;;;;5012001;28;19971;-68
2022/11/28 04:06:36;;;;;;;;;;;;;;;;;;5029009;28;19951;-67
2022/11/28 04:09:01;;;;;;;;;;;;;;;;;;5025047;28;19913;-67
2022/11/28 04:11:28;;;;;;;;;;;;;;;;;;5029435;28;20660;-67
2022/11/28 04:13:54;;;;;;;;;;;;;;;;;;5028656;28;19917;-67
2022/11/28 04:16:20;;;;;;;;;;;;;;;;;;5028656;28;19913;-68
2022/11/28 04:18:46;;;;;;;;;;;;;;;;;;5028500;28;19967;-68
2022/11/28 04:21:12;;;;;;;;;;;;;;;;;;5028459;28;19920;-68
2022/11/28 04:23:37;;;;;;;;;;;;;;;;;;5028232;28;20385;-68
2022/11/28 04:26:03;;;;;;;;;;;;;;;;;;5027487;28;19920;-68
2022/11/28 04:28:29;;;;;;;;;;;;;;;;;;5026970;28;20472;-69
2022/11/28 04:30:55;;;;;;;;;;;;;;;;;;5029050;28;20016;-68
2022/11/28 04:33:21;;;;;;;;;;;;;;;;;;5028116;28;19925;-68
2022/11/28 04:35:48;;;;;;;;;;;;;;;;;;5009934;28;19914;-67
2022/11/28 04:38:14;;;;;;;;;;;;;;;;;;5012234;28;20035;-68
2022/11/28 04:40:40;;;;;;;;;;;;;;;;;;5025282;28;20011;-67
2022/11/28 04:43:06;;;;;;;;;;;;;;;;;;5032237;28;20346;-68
2022/11/28 04:45:32;;;;;;;;;;;;;;;;;;5032844;28;19913;-68
2022/11/28 04:47:58;;;;;;;;;;;;;;;;;;5019299;28;20405;-68
2022/11/28 04:50:23;;;;;;;;;;;;;;;;;;5027550;28;19909;-68
2022/11/28 04:52:49;;;;;;;;;;;;;;;;;;5013002;28;19976;-68
2022/11/28 04:55:15;;;;;;;;;;;;;;;;;;5017680;28;19914;-68
2022/11/28 04:57:41;;;;;;;;;;;;;;;;;;5013175;28;20385;-69
2022/11/28 05:00:07;;;;;;;;;;;;;;;;;;5027462;28;19917;-68
2022/11/28 05:02:33;;;;;;;;;;;;;;;;;;5012619;28;20399;-69
2022/11/28 05:04:59;;;;;;;;;;;;;;;;;;5021431;28;19929;-69
2022/11/28 05:07:25;;;;;;;;;;;;;;;;;;5021837;28;20346;-68
2022/11/28 05:09:50;;;;;;;;;;;;;;;;;;5016620;28;20020;-69
2022/11/28 05:12:16;;;;;;;;;;;;;;;;;;5016867;28;19913;-69
2022/11/28 05:14:42;;;;;;;;;;;;;;;;;;5012771;28;19983;-69
2022/11/28 05:17:08;;;;;;;;;;;;;;;;;;5012439;28;19917;-69
2022/11/28 05:19:34;;;;;;;;;;;;;;;;;;5018950;28;19909;-69
2022/11/28 05:22:00;;;;;;;;;;;;;;;;;;5025502;28;20008;-69
2022/11/28 05:24:26;;;;;;;;;;;;;;;;;;5012733;28;20279;-68
2022/11/28 05:26:52;;;;;;;;;;;;;;;;;;5025903;28;19917;-68
2022/11/28 05:29:18;;;;;;;;;;;;;;;;;;5018333;28;19964;-68
2022/11/28 05:31:43;;;;;;;;;;;;;;;;;;5012828;28;19972;-69
2022/11/28 05:34:09;;;;;;;;;;;;;;;;;;5014602;28;19959;-68
2022/11/28 05:36:35;;;;;;;;;;;;;;;;;;5012037;28;19955;-68
2022/11/28 05:39:01;;;;;;;;;;;;;;;;;;5018476;28;19909;-68
2022/11/28 05:41:27;;;;;;;;;;;;;;;;;;5030825;28;19948;-68
2022/11/28 05:43:53;;;;;;;;;;;;;;;;;;5012921;28;19914;-68
2022/11/28 05:46:19;;;;;;;;;;;;;;;;;;5021791;28;19959;-68
2022/11/28 05:48:45;;;;;;;;;;;;;;;;;;5031045;28;19959;-68
2022/11/28 05:51:10;;;;;;;;;;;;;;;;;;5018302;28;19909;-68
2022/11/28 05:53:36;;;;;;;;;;;;;;;;;;5012121;28;20527;-67
2022/11/28 05:56:02;;;;;;;;;;;;;;;;;;5016694;28;19921;-67
2022/11/28 05:58:28;;;;;;;;;;;;;;;;;;5030743;28;19924;-68
2022/11/28 06:00:54;;;;;;;;;;;;;;;;;;5030797;28;20282;-68
2022/11/28 06:03:20;;;;;;;;;;;;;;;;;;5031142;28;19995;-67
2022/11/28 06:05:47;;;;;;;;;;;;;;;;;;5030253;28;19928;-67
2022/11/28 06:08:12;;;;;;;;;;;;;;;;;;5028925;28;19916;-65
2022/11/28 06:10:38;;;;;;;;;;;;;;;;;;5021614;28;19918;-66
2022/11/28 06:13:04;;;;;;;;;;;;;;;;;;5020112;28;19921;-68
2022/11/28 06:15:30;;;;;;;;;;;;;;;;;;5021807;28;20004;-68
2022/11/28 06:17:56;;;;;;;;;;;;;;;;;;5015954;28;19920;-68
2022/11/28 06:20:22;;;;;;;;;;;;;;;;;;5011258;28;19914;-68
2022/11/28 06:22:48;;;;;;;;;;;;;;;;;;5011756;28;20290;-68
2022/11/28 06:25:14;;;;;;;;;;;;;;;;;;5012664;28;19920;-68
2022/11/28 06:27:39;;;;;;;;;;;;;;;;;;5017191;28;19929;-68
2022/11/28 06:30:05;;;;;;;;;;;;;;;;;;5023638;28;19964;-68
2022/11/28 06:32:31;;;;;;;;;;;;;;;;;;5011959;28;19917;-68
2022/11/28 06:34:57;;;;;;;;;;;;;;;;;;5011839;28;19921;-68
2022/11/28 06:37:23;;;;;;;;;;;;;;;;;;5023965;28;19913;-67
2022/11/28 06:39:50;;;;;;;;;;;;;;;;;;5030413;28;19917;-68
2022/11/28 06:42:16;;;;;;;;;;;;;;;;;;5023995;28;19913;-68
2022/11/28 06:44:41;;;;;;;;;;;;;;;;;;5016779;28;19959;-68
2022/11/28 06:47:07;;;;;;;;;;;;;;;;;;5018046;28;20701;-68
2022/11/28 06:49:34;;;;;;;;;;;;;;;;;;5014172;28;19909;-68
2022/11/28 06:52:00;;;;;;;;;;;;;;;;;;5015590;28;20432;-69
2022/11/28 06:54:26;;;;;;;;;;;;;;;;;;5029597;28;20012;-68
2022/11/28 06:56:52;;;;;;;;;;;;;;;;;;5030039;28;19914;-68
2022/11/28 06:59:18;;;;;;;;;;;;;;;;;;5029713;28;20408;-68
2022/11/28 07:01:44;;;;;;;;;;;;;;;;;;5028961;28;20059;-68
2022/11/28 07:04:10;;;;;;;;;;;;;;;;;;5029409;28;19914;-68
2022/11/28 07:06:35;;;;;;;;;;;;;;;;;;5030086;28;19913;-69
2022/11/28 07:09:01;;;;;;;;;;;;;;;;;;5015077;28;20382;-68
2022/11/28 07:11:27;;;;;;;;;;;;;;;;;;5012005;28;19913;-68
2022/11/28 07:13:53;;;;;;;;;;;;;;;;;;5013231;28;19925;-68
2022/11/28 07:16:19;;;;;;;;;;;;;;;;;;5010612;28;20869;-68
2022/11/28 07:18:45;;;;;;;;;;;;;;;;;;5013748;28;19914;-69
2022/11/28 07:21:11;;;;;;;;;;;;;;;;;;5019147;28;19914;-68
2022/11/28 07:23:37;;;;;;;;;;;;;;;;;;5014899;28;19932;-68
2022/11/28 07:26:03;;;;;;;;;;;;;;;;;;5024265;28;19959;-68
2022/11/28 07:28:29;;;;;;;;;;;;;;;;;;5029125;28;19920;-68
2022/11/28 07:30:54;;;;;;;;;;;;;;;;;;5029720;28;19913;-68
2022/11/28 07:33:20;;;;;;;;;;;;;;;;;;5029170;28;19923;-68
2022/11/28 07:35:46;;;;;;;;;;;;;;;;;;5015785;28;20436;-68
2022/11/28 07:38:12;;;;;;;;;;;;;;;;;;5010618;28;20005;-68
2022/11/28 07:40:38;;;;;;;;;;;;;;;;;;5011964;28;19914;-70
2022/11/28 07:43:04;;;;;;;;;;;;;;;;;;5016655;28;19917;-70
2022/11/28 07:45:30;;;;;;;;;;;;;;;;;;5029057;28;19913;-68
2022/11/28 07:47:56;;;;;;;;;;;;;;;;;;5028990;28;20018;-68
2022/11/28 07:50:21;;;;;;;;;;;;;;;;;;5029098;28;19941;-69
2022/11/28 07:52:50;;;;;;;;;;;;;;;;;;5028662;28;19917;-69
2022/11/28 07:55:16;;;;;;;;;;;;;;;;;;5028715;28;19921;-68
2022/11/28 07:57:41;;;;;;;;;;;;;;;;;;5029132;28;19909;-68
2022/11/28 08:00:07;;;;;;;;;;;;;;;;;;5028802;28;20427;-68
2022/11/28 08:02:33;;;;;;;;;;;;;;;;;;5028607;28;19913;-68
2022/11/28 08:04:59;;;;;;;;;;;;;;;;;;5028497;28;20023;-68
2022/11/28 08:07:25;;;;;;;;;;;;;;;;;;5026141;28;19913;-68
2022/11/28 08:09:51;;;;;;;;;;;;;;;;;;5009824;28;19913;-69
2022/11/28 08:12:17;;;;;;;;;;;;;;;;;;5012850;28;19916;-69
2022/11/28 08:14:43;;;;;;;;;;;;;;;;;;5013942;28;20443;-69
2022/11/28 08:17:09;;;;;;;;;;;;;;;;;;5013589;28;19917;-69
2022/11/28 08:19:34;;;;;;;;;;;;;;;;;;5013201;28;19983;-68
2022/11/28 08:22:00;;;;;;;;;;;;;;;;;;5015842;28;20688;-69
2022/11/28 08:24:26;;;;;;;;;;;;;;;;;;5031686;28;19913;-69
2022/11/28 08:26:52;;;;;;;;;;;;;;;;;;5032317;28;19913;-69
2022/11/28 08:29:18;;;;;;;;;;;;;;;;;;5032472;28;19909;-69
2022/11/28 08:31:44;;;;;;;;;;;;;;;;;;5031907;28;19909;-69
2022/11/28 08:34:11;;;;;;;;;;;;;;;;;;5032142;28;19956;-69
2022/11/28 08:36:37;;;;;;;;;;;;;;;;;;5032281;28;19940;-67
2022/11/28 08:39:03;;;;;;;;;;;;;;;;;;5030880;28;20409;-69
2022/11/28 08:41:29;;;;;;;;;;;;;;;;;;5026430;28;19915;-69
2022/11/28 08:43:54;;;;;;;;;;;;;;;;;;5025519;28;20289;-69
2022/11/28 08:46:20;;;;;;;;;;;;;;;;;;5013357;28;19916;-69
2022/11/28 08:48:46;;;;;;;;;;;;;;;;;;5012843;28;19920;-69
2022/11/28 08:51:13;;;;;;;;;;;;;;;;;;5021721;28;19964;-68
2022/11/28 08:53:39;;;;;;;;;;;;;;;;;;5030739;28;19921;-64
2022/11/28 08:56:05;;;;;;;;;;;;;;;;;;5028218;28;19913;-66
2022/11/28 08:58:30;;;;;;;;;;;;;;;;;;5022080;28;19909;-62
2022/11/28 09:00:56;;;;;;;;;;;;;;;;;;5027682;28;19913;-68
2022/11/28 09:03:22;;;;;;;;;;;;;;;;;;5031433;28;19991;-71
2022/11/28 09:05:48;;;;;;;;;;;;;;;;;;5019891;28;19995;-73
2022/11/28 09:08:14;;;;;;;;;;;;;;;;;;5014686;28;19929;-74
2022/11/28 09:10:40;;;;;;;;;;;;;;;;;;5016485;28;19910;-72
2022/11/28 09:13:06;;;;;;;;;;;;;;;;;;5011926;28;19975;-71
2022/11/28 09:15:32;;;;;;;;;;;;;;;;;;5024550;28;19920;-74
2022/11/28 09:17:57;;;;;;;;;;;;;;;;;;5029568;28;19921;-74
2022/11/28 09:20:23;;;;;;;;;;;;;;;;;;5027660;28;19999;-74
2022/11/28 09:22:49;;;;;;;;;;;;;;;;;;5014108;28;19929;-73
2022/11/28 09:25:15;;;;;;;;;;;;;;;;;;5021286;28;19921;-72
2022/11/28 09:27:41;;;;;;;;;;;;;;;;;;5030428;28;19913;-72
2022/11/28 09:30:07;;;;;;;;;;;;;;;;;;5031513;28;19960;-72
2022/11/28 09:32:33;;;;;;;;;;;;;;;;;;5031078;28;19913;-71
2022/11/28 09:34:59;;;;;;;;;;;;;;;;;;5020022;28;19924;-71
2022/11/28 09:37:24;;;;;;;;;;;;;;;;;;5021917;28;19913;-72
2022/11/28 09:39:50;;;;;;;;;;;;;;;;;;5017024;28;19983;-72
2022/11/28 09:42:16;;;;;;;;;;;;;;;;;;5018775;28;20012;-72
2022/11/28 09:44:42;;;;;;;;;;;;;;;;;;5017606;28;19936;-73
2022/11/28 09:47:08;;;;;;;;;;;;;;;;;;5019674;28;19917;-72
2022/11/28 09:49:34;;;;;;;;;;;;;;;;;;5015690;28;19914;-73
2022/11/28 09:52:00;;;;;;;;;;;;;;;;;;5019544;28;19924;-72
2022/11/28 09:54:26;;;;;;;;;;;;;;;;;;5014821;28;19921;-72
2022/11/28 09:56:52;;;;;;;;;;;;;;;;;;5018181;28;19981;-72
2022/11/28 09:59:17;;;;;;;;;;;;;;;;;;5015886;28;19913;-72
2022/11/28 10:01:43;;;;;;;;;;;;;;;;;;5021523;28;19917;-73
2022/11/28 10:04:09;;;;;;;;;;;;;;;;;;5018480;28;19917;-73
2022/11/28 10:06:35;;;;;;;;;;;;;;;;;;5017887;28;19918;-72
2022/11/28 10:09:01;;;;;;;;;;;;;;;;;;5019051;28;19924;-72
2022/11/28 10:11:27;;;;;;;;;;;;;;;;;;5017060;28;19924;-72
2022/11/28 10:13:53;;;;;;;;;;;;;;;;;;5019972;28;20007;-72
2022/11/28 10:16:19;;;;;;;;;;;;;;;;;;5015410;28;19921;-73
2022/11/28 10:18:44;;;;;;;;;;;;;;;;;;5018448;28;19917;-73
2022/11/28 10:21:10;;;;;;;;;;;;;;;;;;5019824;28;19917;-72
2022/11/28 10:23:36;;;;;;;;;;;;;;;;;;5016072;28;19960;-72
2022/11/28 10:26:02;;;;;;;;;;;;;;;;;;5018563;28;20006;-71
2022/11/28 10:28:28;;;;;;;;;;;;;;;;;;5013678;28;19971;-74
2022/11/28 10:30:54;;;;;;;;;;;;;;;;;;5020071;28;19924;-73
2022/11/28 10:33:20;;;;;;;;;;;;;;;;;;5016405;28;19968;-72
2022/11/28 10:35:46;;;;;;;;;;;;;;;;;;5013742;28;19919;-72
2022/11/28 10:38:12;;;;;;;;;;;;;;;;;;5018742;28;20000;-73
2022/11/28 10:40:38;;;;;;;;;;;;;;;;;;5018131;28;19921;-73
2022/11/28 10:43:04;;;;;;;;;;;;;;;;;;5019683;28;20893;-72
2022/11/28 10:45:30;;;;;;;;;;;;;;;;;;5014249;28;19918;-72
2022/11/28 10:47:56;;;;;;;;;;;;;;;;;;5016616;28;19956;-73
2022/11/28 10:50:22;;;;;;;;;;;;;;;;;;5017953;28;19940;-73
2022/11/28 10:52:47;;;;;;;;;;;;;;;;;;5014302;28;20297;-73
2022/11/28 10:55:13;;;;;;;;;;;;;;;;;;5015087;28;19921;-73
2022/11/28 10:57:39;;;;;;;;;;;;;;;;;;5015381;28;19952;-67
2022/11/28 11:00:05;;;;;;;;;;;;;;;;;;5021841;28;19924;-73
2022/11/28 11:02:31;;;;;;;;;;;;;;;;;;5018507;28;19981;-73
2022/11/28 11:04:57;;;;;;;;;;;;;;;;;;5016933;28;19948;-73
2022/11/28 11:07:23;;;;;;;;;;;;;;;;;;5018508;28;19917;-71
2022/11/28 11:09:49;;;;;;;;;;;;;;;;;;5017258;28;19921;-71
2022/11/28 11:12:15;;;;;;;;;;;;;;;;;;5019156;28;19966;-72
2022/11/28 11:14:41;;;;;;;;;;;;;;;;;;5016786;28;19922;-73
2022/11/28 11:17:07;;;;;;;;;;;;;;;;;;5014488;28;19943;-72
2022/11/28 11:19:33;;;;;;;;;;;;;;;;;;5014177;28;19917;-72
2022/11/28 11:21:59;;;;;;;;;;;;;;;;;;5015039;28;19917;-71
2022/11/28 11:24:25;;;;;;;;;;;;;;;;;;5015596;28;19917;-71
2022/11/28 11:26:51;;;;;;;;;;;;;;;;;;5012700;28;19924;-78
2022/11/28 11:29:17;;;;;;;;;;;;;;;;;;5017288;28;20031;-72
2022/11/28 11:31:43;;;;;;;;;;;;;;;;;;5018986;28;19971;-68
2022/11/28 11:34:09;;;;;;;;;;;;;;;;;;5018819;28;20452;-72
2022/11/28 11:36:35;;;;;;;;;;;;;;;;;;5016450;28;19915;-74
2022/11/28 11:39:01;;;;;;;;;;;;;;;;;;5017987;28;19944;-72
2022/11/28 11:41:27;;;;;;;;;;;;;;;;;;5016670;28;20019;-72
2022/11/28 11:43:53;;;;;;;;;;;;;;;;;;5018647;28;19917;-71
2022/11/28 11:46:19;;;;;;;;;;;;;;;;;;5020976;28;19966;-72
2022/11/28 11:48:45;;;;;;;;;;;;;;;;;;5023285;28;19917;-71
2022/11/28 11:51:10;;;;;;;;;;;;;;;;;;5020301;28;19919;-73
2022/11/28 11:53:37;;;;;;;;;;;;;;;;;;5018321;28;19944;-73
2022/11/28 11:56:03;;;;;;;;;;;;;;;;;;5017893;28;20003;-73
2022/11/28 11:58:29;;;;;;;;;;;;;;;;;;5013841;28;19971;-73
2022/11/28 12:00:55;;;;;;;;;;;;;;;;;;5016576;28;19917;-71
2022/11/28 12:03:20;;;;;;;;;;;;;;;;;;5012282;28;19917;-72
2022/11/28 12:05:47;;;;;;;;;;;;;;;;;;5023657;28;19929;-72
2022/11/28 12:08:13;;;;;;;;;;;;;;;;;;5022274;28;19971;-71
2022/11/28 12:10:39;;;;;;;;;;;;;;;;;;5021041;28;20020;-72
2022/11/28 12:13:05;;;;;;;;;;;;;;;;;;5016226;28;19921;-72
2022/11/28 12:15:31;;;;;;;;;;;;;;;;;;5009222;28;19916;-72
2022/11/28 12:17:57;;;;;;;;;;;;;;;;;;5010049;28;20444;-71
2022/11/28 12:20:23;;;;;;;;;;;;;;;;;;5009448;28;19913;-72
2022/11/28 12:22:49;;;;;;;;;;;;;;;;;;5008931;28;19913;-72
2022/11/28 12:25:14;;;;;;;;;;;;;;;;;;5026112;28;19916;-71
2022/11/28 12:27:40;;;;;;;;;;;;;;;;;;5015738;28;20088;-72
2022/11/28 12:30:06;;;;;;;;;;;;;;;;;;5029071;28;19920;-71
2022/11/28 12:32:32;;;;;;;;;;;;;;;;;;5020449;28;19910;-71
2022/11/28 12:34:58;;;;;;;;;;;;;;;;;;5015591;28;19917;-71
2022/11/28 12:37:24;;;;;;;;;;;;;;;;;;5019551;28;19959;-71
2022/11/28 12:39:50;;;;;;;;;;;;;;;;;;5025402;28;19943;-71
2022/11/28 12:42:16;;;;;;;;;;;;;;;;;;5017946;28;19910;-72
2022/11/28 12:44:42;;;;;;;;;;;;;;;;;;5015428;28;19921;-72
2022/11/28 12:47:08;;;;;;;;;;;;;;;;;;5017963;28;19916;-72
2022/11/28 12:49:34;;;;;;;;;;;;;;;;;;5028590;28;20476;-72
2022/11/28 12:52:00;;;;;;;;;;;;;;;;;;5028301;28;20487;-71
2022/11/28 12:54:26;;;;;;;;;;;;;;;;;;5027628;28;19917;-71
2022/11/28 12:56:51;;;;;;;;;;;;;;;;;;5010160;28;19960;-72
2022/11/28 12:59:18;;;;;;;;;;;;;;;;;;5012201;28;20461;-71
2022/11/28 13:01:44;;;;;;;;;;;;;;;;;;5013418;28;19931;-71
2022/11/28 13:04:10;;;;;;;;;;;;;;;;;;5019451;28;20305;-71
2022/11/28 13:06:36;;;;;;;;;;;;;;;;;;5032367;28;19917;-71
2022/11/28 13:09:02;;;;;;;;;;;;;;;;;;5025400;28;19964;-71
2022/11/28 13:11:28;;;;;;;;;;;;;;;;;;5018962;28;20008;-71
2022/11/28 13:13:55;;;;;;;;;;;;;;;;;;5032467;28;20275;-72
2022/11/28 13:16:21;;;;;;;;;;;;;;;;;;5032082;28;19940;-71
2022/11/28 13:18:46;;;;;;;;;;;;;;;;;;5032394;28;19932;-71
2022/11/28 13:21:12;;;;;;;;;;;;;;;;;;5031448;28;19940;-72
2022/11/28 13:23:38;;;;;;;;;;;;;;;;;;5031627;28;19913;-72
2022/11/28 13:26:04;;;;;;;;;;;;;;;;;;5031927;28;20006;-71
2022/11/28 13:28:30;;;;;;;;;;;;;;;;;;5027340;28;19917;-71
2022/11/28 13:30:56;;;;;;;;;;;;;;;;;;5013164;28;19940;-71
2022/11/28 13:33:22;;;;;;;;;;;;;;;;;;5012750;28;20016;-71
2022/11/28 13:35:48;;;;;;;;;;;;;;;;;;5012337;28;20402;-71
2022/11/28 13:38:13;;;;;;;;;;;;;;;;;;5013030;28;19909;-71
2022/11/28 13:40:39;;;;;;;;;;;;;;;;;;5022144;28;19913;-71
2022/11/28 13:43:05;;;;;;;;;;;;;;;;;;5031611;28;19943;-72
2022/11/28 13:45:31;;;;;;;;;;;;;;;;;;5029330;28;19948;-71
2022/11/28 13:47:57;;;;;;;;;;;;;;;;;;5014496;28;20031;-71
2022/11/28 13:50:23;;;;;;;;;;;;;;;;;;5022783;28;20374;-71
2022/11/28 13:52:49;;;;;;;;;;;;;;;;;;5012200;28;19965;-70
2022/11/28 13:55:15;;;;;;;;;;;;;;;;;;5013755;28;19920;-71
2022/11/28 13:57:41;;;;;;;;;;;;;;;;;;5030616;28;19939;-72
2022/11/28 14:00:07;;;;;;;;;;;;;;;;;;5030673;28;19955;-72
2022/11/28 14:02:32;;;;;;;;;;;;;;;;;;5012912;28;20000;-70
2022/11/28 14:04:58;;;;;;;;;;;;;;;;;;5015248;28;20012;-72
2022/11/28 14:07:24;;;;;;;;;;;;;;;;;;5022323;28;19967;-72
2022/11/28 14:09:50;;;;;;;;;;;;;;;;;;5018123;28;19924;-72
2022/11/28 14:12:16;;;;;;;;;;;;;;;;;;5030971;28;19913;-72
2022/11/28 14:14:42;;;;;;;;;;;;;;;;;;5031007;28;20324;-72
2022/11/28 14:17:08;;;;;;;;;;;;;;;;;;5030994;28;19909;-72
2022/11/28 14:19:34;;;;;;;;;;;;;;;;;;5030554;28;19913;-72
2022/11/28 14:22:00;;;;;;;;;;;;;;;;;;5019385;28;20017;-71
2022/11/28 14:24:26;;;;;;;;;;;;;;;;;;5012088;28;20274;-72
2022/11/28 14:26:51;;;;;;;;;;;;;;;;;;5029111;28;19909;-72
2022/11/28 14:29:17;;;;;;;;;;;;;;;;;;5025951;28;19948;-72
2022/11/28 14:31:43;;;;;;;;;;;;;;;;;;5011285;28;19936;-71
2022/11/28 14:34:09;;;;;;;;;;;;;;;;;;5011610;28;19922;-72
2022/11/28 14:36:36;;;;;;;;;;;;;;;;;;5011501;28;19914;-71
2022/11/28 14:39:02;;;;;;;;;;;;;;;;;;5011636;28;19945;-72
2022/11/28 14:41:28;;;;;;;;;;;;;;;;;;5011325;28;19949;-72
2022/11/28 14:43:53;;;;;;;;;;;;;;;;;;5027621;28;19917;-72
2022/11/28 14:46:19;;;;;;;;;;;;;;;;;;5014691;28;19909;-72
2022/11/28 14:48:45;;;;;;;;;;;;;;;;;;5017025;28;19917;-70
2022/11/28 14:51:11;;;;;;;;;;;;;;;;;;5015778;28;19960;-72
2022/11/28 14:53:37;;;;;;;;;;;;;;;;;;5010453;28;20294;-72
2022/11/28 14:56:03;;;;;;;;;;;;;;;;;;5011593;28;19913;-71
2022/11/28 14:58:29;;;;;;;;;;;;;;;;;;5018048;28;20524;-71
2022/11/28 15:00:55;;;;;;;;;;;;;;;;;;5021082;28;19924;-65
2022/11/28 15:03:21;;;;;;;;;;;;;;;;;;5019052;28;19913;-71
2022/11/28 15:05:47;;;;;;;;;;;;;;;;;;5018283;28;19932;-71
2022/11/28 15:08:13;;;;;;;;;;;;;;;;;;5023389;28;19909;-72
2022/11/28 15:10:39;;;;;;;;;;;;;;;;;;5019434;28;19921;-72
2022/11/28 15:13:05;;;;;;;;;;;;;;;;;;5014496;28;19917;-73
2022/11/28 15:15:31;;;;;;;;;;;;;;;;;;5017414;28;20232;-72
2022/11/28 15:17:57;;;;;;;;;;;;;;;;;;5017199;28;19913;-73
2022/11/28 15:20:24;;;;;;;;;;;;;;;;;;5015883;28;20301;-72
2022/11/28 15:22:50;;;;;;;;;;;;;;;;;;5012284;28;19913;-72
2022/11/28 15:25:16;;;;;;;;;;;;;;;;;;5016419;28;20008;-71
2022/11/28 15:27:41;;;;;;;;;;;;;;;;;;5017960;28;19992;-72
2022/11/28 15:30:07;;;;;;;;;;;;;;;;;;5014676;28;19917;-72
2022/11/28 15:32:33;;;;;;;;;;;;;;;;;;5014734;28;20018;-73
2022/11/28 15:34:59;;;;;;;;;;;;;;;;;;5017713;28;19929;-73
2022/11/28 15:37:25;;;;;;;;;;;;;;;;;;5022449;28;20287;-73
2022/11/28 15:39:51;;;;;;;;;;;;;;;;;;5020080;28;19917;-71
2022/11/28 15:42:17;;;;;;;;;;;;;;;;;;5017099;28;19945;-72
2022/11/28 15:44:43;;;;;;;;;;;;;;;;;;5013767;28;19935;-72
2022/11/28 15:47:08;;;;;;;;;;;;;;;;;;5018503;28;19918;-72
2022/11/28 15:49:37;;;;;;;;;;;;;;;;;;5014517;28;19924;-72
2022/11/28 15:52:03;;;;;;;;;;;;;;;;;;5016818;28;19917;-72
2022/11/28 15:54:29;;;;;;;;;;;;;;;;;;5016550;28;19922;-73
2022/11/28 15:56:54;;;;;;;;;;;;;;;;;;5016492;28;21171;-72
2022/11/28 15:59:20;;;;;;;;;;;;;;;;;;5013417;28;19950;-70
2022/11/28 16:01:46;;;;;;;;;;;;;;;;;;5019022;28;19913;-72
2022/11/28 16:04:12;;;;;;;;;;;;;;;;;;5021662;28;19988;-72
2022/11/28 16:06:38;;;;;;;;;;;;;;;;;;5018770;28;19918;-72
2022/11/28 16:09:04;;;;;;;;;;;;;;;;;;5023712;28;19921;-72
2022/11/28 16:11:30;;;;;;;;;;;;;;;;;;5012734;28;19924;-72
2022/11/28 16:13:56;;;;;;;;;;;;;;;;;;5020697;28;20016;-73
2022/11/28 16:16:22;;;;;;;;;;;;;;;;;;5014364;28;20267;-73
2022/11/28 16:18:48;;;;;;;;;;;;;;;;;;5018527;28;19920;-73
2022/11/28 16:21:13;;;;;;;;;;;;;;;;;;5014429;28;19917;-72
2022/11/28 16:23:40;;;;;;;;;;;;;;;;;;5016819;28;19913;-73
2022/11/28 16:26:06;;;;;;;;;;;;;;;;;;5017139;28;19913;-72
2022/11/28 16:28:32;;;;;;;;;;;;;;;;;;5019220;28;19913;-73
2022/11/28 16:30:57;;;;;;;;;;;;;;;;;;5014383;28;20285;-72
2022/11/28 16:33:24;;;;;;;;;;;;;;;;;;5021068;28;19917;-71
2022/11/28 16:35:50;;;;;;;;;;;;;;;;;;5020309;28;20438;-73